OPLAOPRN

Guest
Details From OPLA - ALLAMA IQBAL INTL
To OPRN - CHAKLALA
Flight Number -
Tags generated
Created
Modified
Stats Distance 146 nm / 271 km
Max Altitude 11,000 ft / 3,353 m
Waypoints 3
Social Downloads 1
Likes 0
Share VATSIM

Download

Looking for another format? Having issues loading an existing format? Contact us
Advertisement - Login to hide

Notes

Basic altitude profile: - Ascent Rate: 2500ft/min - Ascent Speed: 250kts - Cruise Altitude: 30000ft - Cruise Speed: 420kts - Descent Rate: 1500ft/min - Descent Speed: 250kts Options: - Use NATs: yes - Use PACOTS: yes - Use low airways: yes - Use high airways: yes

Route

OPLA INDEK OPRN

ID Type Via Altitude (ft/m) Position (lat/lon) Dist (leg/tot) Name
O OPLA APT - 0 / 0 31.52156 / 74.40359 - / 0 nm ALLAMA IQBAL INTL
INDEK FIX - 11,000 / 3,353 32.76667 / 73.26611 94 / 94 nm
O OPRN APT - 0 / 0 33.61677 / 73.09881 51 / 146 nm CHAKLALA

Altitude Profile

Advertisement - Login to hide

OPLA

Details ICAO OPLA (LHE)
Name ALLAMA IQBAL INTL
Region Pakistan
Timezone Asia/Karachi (UTC+5.0)
Stats Elevation 712 ft / 217 m (AMSL)
Location 31.521600° 74.404600°
Runways 2
Magnetic Variation 2.056° E

METAR

OPLA 210655Z 14008KT 4000 FU SCT040 33/25 Q1010 NOSIG RMK QFE985 RMK A29.83

Decode

TAF

Not found

Departure Runways

ID Width Length Bearing (true/mag) Surface Threshold Overrun Markings Lighting
18L 151 ft / 46 m 11,016 ft / 3,358 m 180.87° / 178.81° CONCRETE 0 ft / 0 m 427 ft / 130 m PREC-APP CENTERLINE EDGE THRESHOLD SALS
18R 151 ft / 46 m 9,058 ft / 2,761 m 180.86° / 178.81° ASPHALT 0 ft / 0 m 0 ft / 0 m PREC-APP EDGE THRESHOLD
36L 151 ft / 46 m 9,058 ft / 2,761 m 0.86° / 358.81° ASPHALT 0 ft / 0 m 0 ft / 0 m PREC-APP EDGE THRESHOLD SALS TDZ
36R 151 ft / 46 m 11,016 ft / 3,358 m 0.87° / 358.81° CONCRETE 0 ft / 0 m 417 ft / 127 m PREC-APP CENTERLINE EDGE THRESHOLD ALSF-II TDZ

OPRN

Details ICAO OPRN (ISB)
Name ISLAMABAD
Region Pakistan
Timezone Asia/Karachi (UTC+5.0)
Stats Elevation 1,666 ft / 508 m (AMSL)
Location 33.616800° 73.098700°
Runways 1
Magnetic Variation 2.658° E

METAR

OPRN 210700Z 05004KT 7000 SCT040 33/22 Q1013 NOSIG RMK A2992

Decode

TAF

Not found

Destination Runways

ID Width Length Bearing (true/mag) Surface Threshold Overrun Markings Lighting
12 150 ft / 46 m 10,795 ft / 3,290 m 118.28° / 115.62° ASPHALT 886 ft / 270 m 679 ft / 207 m PREC-APP CENTERLINE EDGE THRESHOLD SALS
30 150 ft / 46 m 10,795 ft / 3,290 m 298.30° / 295.64° ASPHALT 886 ft / 270 m 741 ft / 226 m PREC-APP CENTERLINE EDGE THRESHOLD ALSF-I

Approach Navaids

Runway Type Ident Frequency Range Bearing (true/mag) Slope Elevation
30 GS IRN 110.30 MHz 10 nm / 19 km 298.58° / 295.92 ° 3.00° 1,707 ft / 520 m (AMSL)
30 DME IRN 110.30 MHz 18 nm / 33 km - - 1,713 ft / 522 m (AMSL)
30 LOC-ILS IRN 110.30 MHz 18 nm / 33 km 298.21° / 295.55 ° - 1,656 ft / 505 m (AMSL)

Popular Alternatives